sensor_id;sensor_type;location;lat;lon;timestamp;temperature;humidity
5735;DHT22;2892;47.592;7.688;2024-01-30T00:02:16;4.50;99.90
5735;DHT22;2892;47.592;7.688;2024-01-30T00:04:42;4.50;99.90
5735;DHT22;2892;47.592;7.688;2024-01-30T00:07:07;4.50;99.90
5735;DHT22;2892;47.592;7.688;2024-01-30T00:09:33;4.50;99.90
5735;DHT22;2892;47.592;7.688;2024-01-30T00:11:58;4.40;99.90
5735;DHT22;2892;47.592;7.688;2024-01-30T00:14:24;4.50;99.90
5735;DHT22;2892;47.592;7.688;2024-01-30T00:16:51;4.40;99.90
5735;DHT22;2892;47.592;7.688;2024-01-30T00:19:16;4.50;99.90
5735;DHT22;2892;47.592;7.688;2024-01-30T00:21:42;4.40;99.90
5735;DHT22;2892;47.592;7.688;2024-01-30T00:24:07;4.50;99.90
5735;DHT22;2892;47.592;7.688;2024-01-30T00:26:33;4.40;99.90
5735;DHT22;2892;47.592;7.688;2024-01-30T00:28:59;4.50;99.90
5735;DHT22;2892;47.592;7.688;2024-01-30T00:31:24;4.40;99.90
5735;DHT22;2892;47.592;7.688;2024-01-30T00:33:50;4.50;99.90
5735;DHT22;2892;47.592;7.688;2024-01-30T00:36:15;4.40;99.90
5735;DHT22;2892;47.592;7.688;2024-01-30T00:38:41;4.40;99.90
5735;DHT22;2892;47.592;7.688;2024-01-30T00:41:08;4.40;99.90
5735;DHT22;2892;47.592;7.688;2024-01-30T00:43:34;4.40;99.90
5735;DHT22;2892;47.592;7.688;2024-01-30T00:45:59;4.40;99.90
5735;DHT22;2892;47.592;7.688;2024-01-30T00:48:25;4.50;99.90
5735;DHT22;2892;47.592;7.688;2024-01-30T00:50:50;4.40;99.90
5735;DHT22;2892;47.592;7.688;2024-01-30T00:53:16;4.30;99.90
5735;DHT22;2892;47.592;7.688;2024-01-30T00:55:41;4.30;99.90
5735;DHT22;2892;47.592;7.688;2024-01-30T00:58:07;4.30;99.90
5735;DHT22;2892;47.592;7.688;2024-01-30T01:00:32;4.20;99.90
5735;DHT22;2892;47.592;7.688;2024-01-30T01:02:58;4.10;99.90
5735;DHT22;2892;47.592;7.688;2024-01-30T01:05:24;4.00;99.90
5735;DHT22;2892;47.592;7.688;2024-01-30T01:07:50;4.10;99.90
5735;DHT22;2892;47.592;7.688;2024-01-30T01:10:16;4.10;99.90
5735;DHT22;2892;47.592;7.688;2024-01-30T01:12:42;4.10;99.90
5735;DHT22;2892;47.592;7.688;2024-01-30T01:15:08;4.10;99.90
5735;DHT22;2892;47.592;7.688;2024-01-30T01:17:34;4.10;99.90
5735;DHT22;2892;47.592;7.688;2024-01-30T01:19:59;4.10;99.90
5735;DHT22;2892;47.592;7.688;2024-01-30T01:22:25;4.10;99.90
5735;DHT22;2892;47.592;7.688;2024-01-30T01:24:50;4.10;99.90
5735;DHT22;2892;47.592;7.688;2024-01-30T01:27:16;4.10;99.90
5735;DHT22;2892;47.592;7.688;2024-01-30T01:29:41;4.10;99.90
5735;DHT22;2892;47.592;7.688;2024-01-30T01:32:07;4.20;99.90
5735;DHT22;2892;47.592;7.688;2024-01-30T01:34:32;4.20;99.90
5735;DHT22;2892;47.592;7.688;2024-01-30T01:36:58;4.10;99.90
5735;DHT22;2892;47.592;7.688;2024-01-30T01:39:23;4.20;99.90
5735;DHT22;2892;47.592;7.688;2024-01-30T01:41:49;4.20;99.90
5735;DHT22;2892;47.592;7.688;2024-01-30T01:44:14;4.10;99.90
5735;DHT22;2892;47.592;7.688;2024-01-30T01:46:42;4.10;99.90
5735;DHT22;2892;47.592;7.688;2024-01-30T01:49:08;4.10;99.90
5735;DHT22;2892;47.592;7.688;2024-01-30T01:51:35;4.10;99.90
5735;DHT22;2892;47.592;7.688;2024-01-30T01:54:03;4.00;99.90
5735;DHT22;2892;47.592;7.688;2024-01-30T01:56:30;4.00;99.90
5735;DHT22;2892;47.592;7.688;2024-01-30T01:59:00;4.10;99.90
5735;DHT22;2892;47.592;7.688;2024-01-30T02:01:27;4.20;99.90
5735;DHT22;2892;47.592;7.688;2024-01-30T02:03:52;4.10;99.90
5735;DHT22;2892;47.592;7.688;2024-01-30T02:06:18;4.10;99.90
5735;DHT22;2892;47.592;7.688;2024-01-30T02:08:44;4.10;99.90
5735;DHT22;2892;47.592;7.688;2024-01-30T02:11:10;4.10;99.90
5735;DHT22;2892;47.592;7.688;2024-01-30T02:13:36;4.10;99.90
5735;DHT22;2892;47.592;7.688;2024-01-30T02:16:01;3.90;99.90
5735;DHT22;2892;47.592;7.688;2024-01-30T02:18:27;4.00;99.90
5735;DHT22;2892;47.592;7.688;2024-01-30T02:20:54;4.00;99.90
5735;DHT22;2892;47.592;7.688;2024-01-30T02:23:24;4.00;99.90
5735;DHT22;2892;47.592;7.688;2024-01-30T02:25:49;4.00;99.90
5735;DHT22;2892;47.592;7.688;2024-01-30T02:28:15;3.90;99.90
5735;DHT22;2892;47.592;7.688;2024-01-30T02:30:42;3.90;99.90
5735;DHT22;2892;47.592;7.688;2024-01-30T02:33:08;3.90;99.90
5735;DHT22;2892;47.592;7.688;2024-01-30T02:35:33;3.80;99.90
5735;DHT22;2892;47.592;7.688;2024-01-30T02:37:59;3.80;99.90
5735;DHT22;2892;47.592;7.688;2024-01-30T02:40:25;3.60;99.90
5735;DHT22;2892;47.592;7.688;2024-01-30T02:42:50;3.60;99.90
5735;DHT22;2892;47.592;7.688;2024-01-30T02:45:16;3.70;99.90
5735;DHT22;2892;47.592;7.688;2024-01-30T02:47:42;3.70;99.90
5735;DHT22;2892;47.592;7.688;2024-01-30T02:50:08;3.60;99.90
5735;DHT22;2892;47.592;7.688;2024-01-30T02:52:33;3.70;99.90
5735;DHT22;2892;47.592;7.688;2024-01-30T02:54:59;3.60;99.90
5735;DHT22;2892;47.592;7.688;2024-01-30T02:57:24;3.50;99.90
5735;DHT22;2892;47.592;7.688;2024-01-30T02:59:50;3.50;99.90
5735;DHT22;2892;47.592;7.688;2024-01-30T03:02:15;3.40;99.90
5735;DHT22;2892;47.592;7.688;2024-01-30T03:04:41;3.50;99.90
5735;DHT22;2892;47.592;7.688;2024-01-30T03:07:07;3.40;99.90
5735;DHT22;2892;47.592;7.688;2024-01-30T03:09:33;3.30;99.90
5735;DHT22;2892;47.592;7.688;2024-01-30T03:11:58;3.30;99.90
5735;DHT22;2892;47.592;7.688;2024-01-30T03:14:24;3.30;99.90
5735;DHT22;2892;47.592;7.688;2024-01-30T03:16:49;3.30;99.90
5735;DHT22;2892;47.592;7.688;2024-01-30T03:19:15;3.20;99.90
5735;DHT22;2892;47.592;7.688;2024-01-30T03:21:40;3.20;99.90
5735;DHT22;2892;47.592;7.688;2024-01-30T03:24:06;3.20;99.90
5735;DHT22;2892;47.592;7.688;2024-01-30T03:26:31;3.20;99.90
5735;DHT22;2892;47.592;7.688;2024-01-30T03:28:57;3.30;99.90
5735;DHT22;2892;47.592;7.688;2024-01-30T03:31:22;3.30;99.90
5735;DHT22;2892;47.592;7.688;2024-01-30T03:33:48;3.20;99.90
5735;DHT22;2892;47.592;7.688;2024-01-30T03:36:15;3.20;99.90
5735;DHT22;2892;47.592;7.688;2024-01-30T03:38:41;3.20;99.90
5735;DHT22;2892;47.592;7.688;2024-01-30T03:41:08;3.30;99.90
5735;DHT22;2892;47.592;7.688;2024-01-30T03:43:33;3.40;99.90
5735;DHT22;2892;47.592;7.688;2024-01-30T03:46:00;3.40;99.90
5735;DHT22;2892;47.592;7.688;2024-01-30T03:48:26;3.40;99.90
5735;DHT22;2892;47.592;7.688;2024-01-30T03:50:51;3.30;99.90
5735;DHT22;2892;47.592;7.688;2024-01-30T03:53:17;3.40;99.90
5735;DHT22;2892;47.592;7.688;2024-01-30T03:55:42;3.50;99.90
5735;DHT22;2892;47.592;7.688;2024-01-30T03:58:08;3.60;99.90
5735;DHT22;2892;47.592;7.688;2024-01-30T04:00:34;3.60;99.90
5735;DHT22;2892;47.592;7.688;2024-01-30T04:02:59;3.70;99.90
5735;DHT22;2892;47.592;7.688;2024-01-30T04:05:25;3.40;99.90
5735;DHT22;2892;47.592;7.688;2024-01-30T04:07:50;3.40;99.90
5735;DHT22;2892;47.592;7.688;2024-01-30T04:10:16;3.30;99.90
5735;DHT22;2892;47.592;7.688;2024-01-30T04:12:41;3.20;99.90
5735;DHT22;2892;47.592;7.688;2024-01-30T04:15:07;3.10;99.90
5735;DHT22;2892;47.592;7.688;2024-01-30T04:17:32;3.00;99.90
5735;DHT22;2892;47.592;7.688;2024-01-30T04:19:58;3.00;99.90
5735;DHT22;2892;47.592;7.688;2024-01-30T04:22:23;3.10;99.90
5735;DHT22;2892;47.592;7.688;2024-01-30T04:24:49;3.00;99.90
5735;DHT22;2892;47.592;7.688;2024-01-30T04:27:14;2.90;99.90
5735;DHT22;2892;47.592;7.688;2024-01-30T04:29:40;2.90;99.90
5735;DHT22;2892;47.592;7.688;2024-01-30T04:32:06;3.00;99.90
5735;DHT22;2892;47.592;7.688;2024-01-30T04:34:31;2.90;99.90
5735;DHT22;2892;47.592;7.688;2024-01-30T04:36:57;2.90;99.90
5735;DHT22;2892;47.592;7.688;2024-01-30T04:39:22;3.00;99.90
5735;DHT22;2892;47.592;7.688;2024-01-30T04:41:48;2.90;99.90
5735;DHT22;2892;47.592;7.688;2024-01-30T04:44:14;3.00;99.90
5735;DHT22;2892;47.592;7.688;2024-01-30T04:46:39;2.90;99.90
5735;DHT22;2892;47.592;7.688;2024-01-30T04:49:05;2.90;99.90
5735;DHT22;2892;47.592;7.688;2024-01-30T04:51:31;2.90;99.90
5735;DHT22;2892;47.592;7.688;2024-01-30T04:53:56;3.00;99.90
5735;DHT22;2892;47.592;7.688;2024-01-30T04:56:21;3.00;99.90
5735;DHT22;2892;47.592;7.688;2024-01-30T04:58:47;2.90;99.90
5735;DHT22;2892;47.592;7.688;2024-01-30T05:01:16;2.90;99.90
5735;DHT22;2892;47.592;7.688;2024-01-30T05:03:42;3.00;99.90
5735;DHT22;2892;47.592;7.688;2024-01-30T05:06:07;3.00;99.90
5735;DHT22;2892;47.592;7.688;2024-01-30T05:08:33;3.00;99.90
5735;DHT22;2892;47.592;7.688;2024-01-30T05:11:02;3.00;99.90
5735;DHT22;2892;47.592;7.688;2024-01-30T05:13:27;3.00;99.90
5735;DHT22;2892;47.592;7.688;2024-01-30T05:15:53;3.00;99.90
5735;DHT22;2892;47.592;7.688;2024-01-30T05:18:18;3.00;99.90
5735;DHT22;2892;47.592;7.688;2024-01-30T05:20:43;3.00;99.90
5735;DHT22;2892;47.592;7.688;2024-01-30T05:23:09;3.10;99.90
5735;DHT22;2892;47.592;7.688;2024-01-30T05:25:34;3.10;99.90
5735;DHT22;2892;47.592;7.688;2024-01-30T05:28:00;3.00;99.90
5735;DHT22;2892;47.592;7.688;2024-01-30T05:30:25;3.00;99.90
5735;DHT22;2892;47.592;7.688;2024-01-30T05:32:51;3.00;99.90
5735;DHT22;2892;47.592;7.688;2024-01-30T05:35:16;3.00;99.90
5735;DHT22;2892;47.592;7.688;2024-01-30T05:37:42;3.00;99.90
5735;DHT22;2892;47.592;7.688;2024-01-30T05:40:08;2.90;99.90
5735;DHT22;2892;47.592;7.688;2024-01-30T05:42:33;2.80;99.90
5735;DHT22;2892;47.592;7.688;2024-01-30T05:44:59;2.80;99.90
5735;DHT22;2892;47.592;7.688;2024-01-30T05:47:24;2.80;99.90
5735;DHT22;2892;47.592;7.688;2024-01-30T05:49:49;2.80;99.90
5735;DHT22;2892;47.592;7.688;2024-01-30T05:52:15;2.70;99.90
5735;DHT22;2892;47.592;7.688;2024-01-30T05:54:41;2.70;99.90
5735;DHT22;2892;47.592;7.688;2024-01-30T05:57:06;2.60;99.90
5735;DHT22;2892;47.592;7.688;2024-01-30T05:59:32;2.60;99.90
5735;DHT22;2892;47.592;7.688;2024-01-30T06:01:57;2.50;99.90
5735;DHT22;2892;47.592;7.688;2024-01-30T06:04:23;2.60;99.90
5735;DHT22;2892;47.592;7.688;2024-01-30T06:06:48;2.50;99.90
5735;DHT22;2892;47.592;7.688;2024-01-30T06:09:14;2.50;99.90
5735;DHT22;2892;47.592;7.688;2024-01-30T06:11:39;2.50;99.90
5735;DHT22;2892;47.592;7.688;2024-01-30T06:14:05;2.50;99.90
5735;DHT22;2892;47.592;7.688;2024-01-30T06:16:30;2.50;99.90
5735;DHT22;2892;47.592;7.688;2024-01-30T06:18:56;2.60;99.90
5735;DHT22;2892;47.592;7.688;2024-01-30T06:21:23;2.60;99.90
5735;DHT22;2892;47.592;7.688;2024-01-30T06:23:48;2.50;99.90
5735;DHT22;2892;47.592;7.688;2024-01-30T06:26:14;2.60;99.90
5735;DHT22;2892;47.592;7.688;2024-01-30T06:28:39;2.70;99.90
5735;DHT22;2892;47.592;7.688;2024-01-30T06:31:05;2.60;99.90
5735;DHT22;2892;47.592;7.688;2024-01-30T06:33:30;2.50;99.90
5735;DHT22;2892;47.592;7.688;2024-01-30T06:35:56;2.40;99.90
5735;DHT22;2892;47.592;7.688;2024-01-30T06:38:21;2.10;99.90
5735;DHT22;2892;47.592;7.688;2024-01-30T06:40:47;2.10;99.90
5735;DHT22;2892;47.592;7.688;2024-01-30T06:43:12;2.20;99.90
5735;DHT22;2892;47.592;7.688;2024-01-30T06:45:38;2.20;99.90
5735;DHT22;2892;47.592;7.688;2024-01-30T06:48:03;2.20;99.90
5735;DHT22;2892;47.592;7.688;2024-01-30T06:50:29;2.10;99.90
5735;DHT22;2892;47.592;7.688;2024-01-30T06:52:54;2.00;99.90
5735;DHT22;2892;47.592;7.688;2024-01-30T06:55:20;2.00;99.90
5735;DHT22;2892;47.592;7.688;2024-01-30T06:57:45;2.00;99.90
5735;DHT22;2892;47.592;7.688;2024-01-30T07:00:11;2.10;99.90
5735;DHT22;2892;47.592;7.688;2024-01-30T07:02:37;2.10;99.90
5735;DHT22;2892;47.592;7.688;2024-01-30T07:05:03;2.10;99.90
5735;DHT22;2892;47.592;7.688;2024-01-30T07:07:28;2.10;99.90
5735;DHT22;2892;47.592;7.688;2024-01-30T07:09:54;2.20;99.90
5735;DHT22;2892;47.592;7.688;2024-01-30T07:12:20;2.30;99.90
5735;DHT22;2892;47.592;7.688;2024-01-30T07:14:45;2.20;99.90
5735;DHT22;2892;47.592;7.688;2024-01-30T07:17:11;2.20;99.90
5735;DHT22;2892;47.592;7.688;2024-01-30T07:19:36;2.10;99.90
5735;DHT22;2892;47.592;7.688;2024-01-30T07:22:02;2.00;99.90
5735;DHT22;2892;47.592;7.688;2024-01-30T07:24:27;2.10;99.90
5735;DHT22;2892;47.592;7.688;2024-01-30T07:26:53;2.20;99.90
5735;DHT22;2892;47.592;7.688;2024-01-30T07:29:18;2.20;99.90
5735;DHT22;2892;47.592;7.688;2024-01-30T07:31:44;2.30;99.90
5735;DHT22;2892;47.592;7.688;2024-01-30T07:34:09;2.30;99.90
5735;DHT22;2892;47.592;7.688;2024-01-30T07:36:35;2.30;99.90
5735;DHT22;2892;47.592;7.688;2024-01-30T07:39:00;2.20;99.90
5735;DHT22;2892;47.592;7.688;2024-01-30T07:41:25;2.30;99.90
5735;DHT22;2892;47.592;7.688;2024-01-30T07:43:51;2.20;99.90
5735;DHT22;2892;47.592;7.688;2024-01-30T07:46:16;2.20;99.90
5735;DHT22;2892;47.592;7.688;2024-01-30T07:48:42;2.20;99.90
5735;DHT22;2892;47.592;7.688;2024-01-30T07:51:08;2.30;99.90
5735;DHT22;2892;47.592;7.688;2024-01-30T07:53:33;2.30;99.90
5735;DHT22;2892;47.592;7.688;2024-01-30T07:55:58;2.20;99.90
5735;DHT22;2892;47.592;7.688;2024-01-30T07:58:24;2.40;99.90
5735;DHT22;2892;47.592;7.688;2024-01-30T08:00:49;2.50;99.90
5735;DHT22;2892;47.592;7.688;2024-01-30T08:03:15;2.70;99.90
5735;DHT22;2892;47.592;7.688;2024-01-30T08:05:40;2.80;99.90
5735;DHT22;2892;47.592;7.688;2024-01-30T08:08:06;2.80;99.90
5735;DHT22;2892;47.592;7.688;2024-01-30T08:10:32;2.90;99.90
5735;DHT22;2892;47.592;7.688;2024-01-30T08:12:57;3.00;99.90
5735;DHT22;2892;47.592;7.688;2024-01-30T08:15:23;3.00;99.90
5735;DHT22;2892;47.592;7.688;2024-01-30T08:17:48;3.10;99.90
5735;DHT22;2892;47.592;7.688;2024-01-30T08:20:14;3.10;99.90
5735;DHT22;2892;47.592;7.688;2024-01-30T08:22:39;3.10;99.90
5735;DHT22;2892;47.592;7.688;2024-01-30T08:25:06;3.20;99.90
5735;DHT22;2892;47.592;7.688;2024-01-30T08:27:31;3.30;99.90
5735;DHT22;2892;47.592;7.688;2024-01-30T08:29:57;3.40;99.90
5735;DHT22;2892;47.592;7.688;2024-01-30T08:32:23;3.40;99.90
5735;DHT22;2892;47.592;7.688;2024-01-30T08:34:48;3.50;99.90
5735;DHT22;2892;47.592;7.688;2024-01-30T08:37:13;3.60;99.90
5735;DHT22;2892;47.592;7.688;2024-01-30T08:39:39;3.60;99.90
5735;DHT22;2892;47.592;7.688;2024-01-30T08:42:05;3.60;99.90
5735;DHT22;2892;47.592;7.688;2024-01-30T08:44:30;3.70;99.90
5735;DHT22;2892;47.592;7.688;2024-01-30T08:46:56;3.70;99.90
5735;DHT22;2892;47.592;7.688;2024-01-30T08:49:21;3.80;99.90
5735;DHT22;2892;47.592;7.688;2024-01-30T08:51:47;3.80;99.90
5735;DHT22;2892;47.592;7.688;2024-01-30T08:54:12;3.90;99.90
5735;DHT22;2892;47.592;7.688;2024-01-30T08:56:38;4.00;99.90
5735;DHT22;2892;47.592;7.688;2024-01-30T08:59:03;4.00;99.90
5735;DHT22;2892;47.592;7.688;2024-01-30T09:01:29;4.10;99.90
5735;DHT22;2892;47.592;7.688;2024-01-30T09:03:54;4.10;99.90
5735;DHT22;2892;47.592;7.688;2024-01-30T09:06:20;4.20;99.90
5735;DHT22;2892;47.592;7.688;2024-01-30T09:08:45;4.20;99.90
5735;DHT22;2892;47.592;7.688;2024-01-30T09:11:13;4.20;99.90
5735;DHT22;2892;47.592;7.688;2024-01-30T09:13:39;4.20;99.90
5735;DHT22;2892;47.592;7.688;2024-01-30T09:16:04;4.30;99.90
5735;DHT22;2892;47.592;7.688;2024-01-30T09:18:30;4.60;99.90
5735;DHT22;2892;47.592;7.688;2024-01-30T09:20:56;4.60;99.90
5735;DHT22;2892;47.592;7.688;2024-01-30T09:23:21;4.60;99.90
5735;DHT22;2892;47.592;7.688;2024-01-30T09:25:47;4.80;99.90
5735;DHT22;2892;47.592;7.688;2024-01-30T09:28:12;4.90;99.90
5735;DHT22;2892;47.592;7.688;2024-01-30T09:30:38;5.30;99.90
5735;DHT22;2892;47.592;7.688;2024-01-30T09:33:04;5.50;99.90
5735;DHT22;2892;47.592;7.688;2024-01-30T09:35:30;5.30;99.90
5735;DHT22;2892;47.592;7.688;2024-01-30T09:37:55;5.60;99.90
5735;DHT22;2892;47.592;7.688;2024-01-30T09:40:21;5.60;99.90
5735;DHT22;2892;47.592;7.688;2024-01-30T09:42:47;5.80;99.90
5735;DHT22;2892;47.592;7.688;2024-01-30T09:45:14;5.90;99.90
5735;DHT22;2892;47.592;7.688;2024-01-30T09:47:42;6.00;99.90
5735;DHT22;2892;47.592;7.688;2024-01-30T09:50:09;6.00;99.90
5735;DHT22;2892;47.592;7.688;2024-01-30T09:52:35;6.00;99.90
5735;DHT22;2892;47.592;7.688;2024-01-30T09:55:00;6.20;99.90
5735;DHT22;2892;47.592;7.688;2024-01-30T09:57:26;6.00;99.90
5735;DHT22;2892;47.592;7.688;2024-01-30T09:59:52;6.00;99.90
5735;DHT22;2892;47.592;7.688;2024-01-30T10:02:18;6.00;99.90
5735;DHT22;2892;47.592;7.688;2024-01-30T10:04:44;5.80;99.90
5735;DHT22;2892;47.592;7.688;2024-01-30T10:07:10;6.00;99.90
5735;DHT22;2892;47.592;7.688;2024-01-30T10:09:36;6.20;99.90
5735;DHT22;2892;47.592;7.688;2024-01-30T10:12:02;6.20;99.90
5735;DHT22;2892;47.592;7.688;2024-01-30T10:14:28;6.30;99.90
5735;DHT22;2892;47.592;7.688;2024-01-30T10:16:55;6.30;99.90
5735;DHT22;2892;47.592;7.688;2024-01-30T10:19:22;6.30;99.90
5735;DHT22;2892;47.592;7.688;2024-01-30T10:21:48;6.00;99.90
5735;DHT22;2892;47.592;7.688;2024-01-30T10:24:13;6.10;99.90
5735;DHT22;2892;47.592;7.688;2024-01-30T10:26:39;6.40;99.90
5735;DHT22;2892;47.592;7.688;2024-01-30T10:29:05;6.50;99.90
5735;DHT22;2892;47.592;7.688;2024-01-30T10:31:30;6.50;99.90
5735;DHT22;2892;47.592;7.688;2024-01-30T10:33:56;6.60;99.90
5735;DHT22;2892;47.592;7.688;2024-01-30T10:36:28;6.60;99.90
5735;DHT22;2892;47.592;7.688;2024-01-30T10:38:55;6.80;99.90
5735;DHT22;2892;47.592;7.688;2024-01-30T10:41:27;6.80;99.90
5735;DHT22;2892;47.592;7.688;2024-01-30T10:44:04;6.80;99.90
5735;DHT22;2892;47.592;7.688;2024-01-30T10:46:33;6.90;99.90
5735;DHT22;2892;47.592;7.688;2024-01-30T10:49:00;6.90;99.90
5735;DHT22;2892;47.592;7.688;2024-01-30T10:51:27;6.90;99.90
5735;DHT22;2892;47.592;7.688;2024-01-30T10:53:52;6.90;99.90
5735;DHT22;2892;47.592;7.688;2024-01-30T10:56:21;6.90;99.90
5735;DHT22;2892;47.592;7.688;2024-01-30T10:58:50;7.00;99.90
5735;DHT22;2892;47.592;7.688;2024-01-30T11:01:16;7.30;99.90
5735;DHT22;2892;47.592;7.688;2024-01-30T11:03:42;8.00;99.90
5735;DHT22;2892;47.592;7.688;2024-01-30T11:06:11;8.20;99.90
5735;DHT22;2892;47.592;7.688;2024-01-30T11:08:36;8.20;99.40
5735;DHT22;2892;47.592;7.688;2024-01-30T11:11:02;8.20;99.90
5735;DHT22;2892;47.592;7.688;2024-01-30T11:13:33;9.20;99.30
5735;DHT22;2892;47.592;7.688;2024-01-30T11:16:04;8.80;98.30
5735;DHT22;2892;47.592;7.688;2024-01-30T11:18:30;8.90;97.50
5735;DHT22;2892;47.592;7.688;2024-01-30T11:20:57;8.80;99.30
5735;DHT22;2892;47.592;7.688;2024-01-30T11:23:23;9.40;97.80
5735;DHT22;2892;47.592;7.688;2024-01-30T11:25:49;9.70;96.30
5735;DHT22;2892;47.592;7.688;2024-01-30T11:28:17;9.90;94.90
5735;DHT22;2892;47.592;7.688;2024-01-30T11:30:42;9.80;95.20
5735;DHT22;2892;47.592;7.688;2024-01-30T11:33:11;9.50;94.40
5735;DHT22;2892;47.592;7.688;2024-01-30T11:35:38;9.50;97.60
5735;DHT22;2892;47.592;7.688;2024-01-30T11:38:05;10.20;96.40
5735;DHT22;2892;47.592;7.688;2024-01-30T11:40:31;9.80;95.90
5735;DHT22;2892;47.592;7.688;2024-01-30T11:42:58;9.60;94.90
5735;DHT22;2892;47.592;7.688;2024-01-30T11:45:24;9.60;97.50
5735;DHT22;2892;47.592;7.688;2024-01-30T11:47:50;9.50;99.10
5735;DHT22;2892;47.592;7.688;2024-01-30T11:50:16;9.70;98.60
5735;DHT22;2892;47.592;7.688;2024-01-30T11:52:42;9.70;95.80
5735;DHT22;2892;47.592;7.688;2024-01-30T11:55:08;9.70;96.60
5735;DHT22;2892;47.592;7.688;2024-01-30T11:57:34;10.00;97.00
5735;DHT22;2892;47.592;7.688;2024-01-30T11:59:59;10.00;94.20
5735;DHT22;2892;47.592;7.688;2024-01-30T12:02:25;10.00;96.90
5735;DHT22;2892;47.592;7.688;2024-01-30T12:04:50;10.60;94.40
5735;DHT22;2892;47.592;7.688;2024-01-30T12:07:16;10.50;91.80
5735;DHT22;2892;47.592;7.688;2024-01-30T12:09:42;10.30;93.60
5735;DHT22;2892;47.592;7.688;2024-01-30T12:12:07;10.10;91.70
5735;DHT22;2892;47.592;7.688;2024-01-30T12:14:33;10.20;93.00
5735;DHT22;2892;47.592;7.688;2024-01-30T12:16:58;10.50;96.90
5735;DHT22;2892;47.592;7.688;2024-01-30T12:19:25;10.50;93.70
5735;DHT22;2892;47.592;7.688;2024-01-30T12:21:55;10.50;92.30
5735;DHT22;2892;47.592;7.688;2024-01-30T12:24:22;10.50;92.80
5735;DHT22;2892;47.592;7.688;2024-01-30T12:26:47;10.20;92.50
5735;DHT22;2892;47.592;7.688;2024-01-30T12:29:14;10.00;91.90
5735;DHT22;2892;47.592;7.688;2024-01-30T12:31:42;10.00;93.40
5735;DHT22;2892;47.592;7.688;2024-01-30T12:34:07;9.80;93.60
5735;DHT22;2892;47.592;7.688;2024-01-30T12:36:34;9.70;93.50
5735;DHT22;2892;47.592;7.688;2024-01-30T12:39:00;9.60;94.20
5735;DHT22;2892;47.592;7.688;2024-01-30T12:41:26;9.60;93.80
5735;DHT22;2892;47.592;7.688;2024-01-30T12:43:52;9.50;95.80
5735;DHT22;2892;47.592;7.688;2024-01-30T12:46:17;9.50;96.30
5735;DHT22;2892;47.592;7.688;2024-01-30T12:48:43;9.60;95.20
5735;DHT22;2892;47.592;7.688;2024-01-30T12:51:08;9.60;95.90
5735;DHT22;2892;47.592;7.688;2024-01-30T12:53:34;9.60;95.70
5735;DHT22;2892;47.592;7.688;2024-01-30T12:55:59;9.70;96.60
5735;DHT22;2892;47.592;7.688;2024-01-30T12:58:25;9.70;96.10
5735;DHT22;2892;47.592;7.688;2024-01-30T13:00:50;9.70;95.90
5735;DHT22;2892;47.592;7.688;2024-01-30T13:03:16;9.80;97.30
5735;DHT22;2892;47.592;7.688;2024-01-30T13:05:42;9.90;96.40
5735;DHT22;2892;47.592;7.688;2024-01-30T13:08:07;10.00;96.20
5735;DHT22;2892;47.592;7.688;2024-01-30T13:10:33;10.00;95.60
5735;DHT22;2892;47.592;7.688;2024-01-30T13:12:58;10.10;95.70
5735;DHT22;2892;47.592;7.688;2024-01-30T13:15:24;10.20;94.00
5735;DHT22;2892;47.592;7.688;2024-01-30T13:17:50;10.20;95.70
5735;DHT22;2892;47.592;7.688;2024-01-30T13:20:15;10.40;94.20
5735;DHT22;2892;47.592;7.688;2024-01-30T13:22:41;10.50;93.80
5735;DHT22;2892;47.592;7.688;2024-01-30T13:25:07;10.60;94.30
5735;DHT22;2892;47.592;7.688;2024-01-30T13:27:32;11.00;95.80
5735;DHT22;2892;47.592;7.688;2024-01-30T13:29:58;10.90;91.70
5735;DHT22;2892;47.592;7.688;2024-01-30T13:32:23;11.30;93.80
5735;DHT22;2892;47.592;7.688;2024-01-30T13:34:49;11.40;91.20
5735;DHT22;2892;47.592;7.688;2024-01-30T13:37:14;11.40;91.80
5735;DHT22;2892;47.592;7.688;2024-01-30T13:39:40;11.40;90.20
5735;DHT22;2892;47.592;7.688;2024-01-30T13:42:05;11.40;91.20
5735;DHT22;2892;47.592;7.688;2024-01-30T13:44:31;11.30;87.50
5735;DHT22;2892;47.592;7.688;2024-01-30T13:46:56;11.40;79.10
5735;DHT22;2892;47.592;7.688;2024-01-30T13:49:22;11.50;82.50
5735;DHT22;2892;47.592;7.688;2024-01-30T13:51:47;11.50;85.70
5735;DHT22;2892;47.592;7.688;2024-01-30T13:54:13;11.40;83.40
5735;DHT22;2892;47.592;7.688;2024-01-30T13:56:38;11.20;84.40
5735;DHT22;2892;47.592;7.688;2024-01-30T13:59:04;11.20;85.50
5735;DHT22;2892;47.592;7.688;2024-01-30T14:01:29;11.30;85.20
5735;DHT22;2892;47.592;7.688;2024-01-30T14:03:55;11.30;90.10
5735;DHT22;2892;47.592;7.688;2024-01-30T14:06:20;11.20;90.70
5735;DHT22;2892;47.592;7.688;2024-01-30T14:08:46;11.20;90.20
5735;DHT22;2892;47.592;7.688;2024-01-30T14:11:11;11.20;90.20
5735;DHT22;2892;47.592;7.688;2024-01-30T14:13:37;11.00;88.40
5735;DHT22;2892;47.592;7.688;2024-01-30T14:16:02;10.90;86.90
5735;DHT22;2892;47.592;7.688;2024-01-30T14:18:28;10.70;88.00
5735;DHT22;2892;47.592;7.688;2024-01-30T14:20:53;10.70;89.90
5735;DHT22;2892;47.592;7.688;2024-01-30T14:23:19;10.60;90.60
5735;DHT22;2892;47.592;7.688;2024-01-30T14:25:44;10.60;90.10
5735;DHT22;2892;47.592;7.688;2024-01-30T14:28:10;10.60;93.10
5735;DHT22;2892;47.592;7.688;2024-01-30T14:30:35;10.50;90.20
5735;DHT22;2892;47.592;7.688;2024-01-30T14:33:01;10.50;91.70
5735;DHT22;2892;47.592;7.688;2024-01-30T14:35:27;10.50;91.80
5735;DHT22;2892;47.592;7.688;2024-01-30T14:37:53;10.50;91.50
5735;DHT22;2892;47.592;7.688;2024-01-30T14:40:18;10.40;93.30
5735;DHT22;2892;47.592;7.688;2024-01-30T14:42:44;10.40;92.90
5735;DHT22;2892;47.592;7.688;2024-01-30T14:45:09;10.40;92.30
5735;DHT22;2892;47.592;7.688;2024-01-30T14:47:35;10.40;92.30
5735;DHT22;2892;47.592;7.688;2024-01-30T14:50:01;10.40;92.70
5735;DHT22;2892;47.592;7.688;2024-01-30T14:52:26;10.40;91.40
5735;DHT22;2892;47.592;7.688;2024-01-30T14:54:52;10.40;92.30
5735;DHT22;2892;47.592;7.688;2024-01-30T14:57:17;10.50;92.10
5735;DHT22;2892;47.592;7.688;2024-01-30T14:59:43;10.30;93.70
5735;DHT22;2892;47.592;7.688;2024-01-30T15:02:09;10.30;93.80
5735;DHT22;2892;47.592;7.688;2024-01-30T15:04:34;10.20;95.00
5735;DHT22;2892;47.592;7.688;2024-01-30T15:07:00;10.20;96.10
5735;DHT22;2892;47.592;7.688;2024-01-30T15:09:25;10.20;95.40
5735;DHT22;2892;47.592;7.688;2024-01-30T15:11:51;10.10;97.10
5735;DHT22;2892;47.592;7.688;2024-01-30T15:14:17;10.00;99.30
5735;DHT22;2892;47.592;7.688;2024-01-30T15:16:42;9.80;99.90
5735;DHT22;2892;47.592;7.688;2024-01-30T15:19:08;9.70;99.90
5735;DHT22;2892;47.592;7.688;2024-01-30T15:21:33;9.70;99.90
5735;DHT22;2892;47.592;7.688;2024-01-30T15:23:59;9.70;99.90
5735;DHT22;2892;47.592;7.688;2024-01-30T15:26:25;9.60;99.90
5735;DHT22;2892;47.592;7.688;2024-01-30T15:28:51;9.50;99.90
5735;DHT22;2892;47.592;7.688;2024-01-30T15:31:16;9.70;99.90
5735;DHT22;2892;47.592;7.688;2024-01-30T15:33:42;9.50;99.90
5735;DHT22;2892;47.592;7.688;2024-01-30T15:36:07;9.40;99.90
5735;DHT22;2892;47.592;7.688;2024-01-30T15:38:33;9.10;99.90
5735;DHT22;2892;47.592;7.688;2024-01-30T15:40:58;9.10;99.90
5735;DHT22;2892;47.592;7.688;2024-01-30T15:43:24;9.00;99.90
5735;DHT22;2892;47.592;7.688;2024-01-30T15:45:50;9.00;99.90
5735;DHT22;2892;47.592;7.688;2024-01-30T15:48:15;9.00;99.90
5735;DHT22;2892;47.592;7.688;2024-01-30T15:50:41;9.00;99.90
5735;DHT22;2892;47.592;7.688;2024-01-30T15:53:06;9.10;99.90
5735;DHT22;2892;47.592;7.688;2024-01-30T15:55:32;9.10;99.90
5735;DHT22;2892;47.592;7.688;2024-01-30T15:57:57;8.90;99.90
5735;DHT22;2892;47.592;7.688;2024-01-30T16:00:23;9.00;99.90
5735;DHT22;2892;47.592;7.688;2024-01-30T16:02:48;9.10;99.90
5735;DHT22;2892;47.592;7.688;2024-01-30T16:05:14;9.00;99.90